Terminal Aerodrome Forecast
Issued by NWS

Home | Current Version | Previous Version | Text Only | Print | Product List | Glossary On
Versions: 1 2 3 4 5 6 7 8 9 10 11 12 13 14 15 16 17 18
000
FTUS43 KGRB 281200 AAA
TAFCWA
TAF AMD
KCWA 281210Z 2812/2912 18006KT 5SM -SN BR BKN025 OVC040
      TEMPO 2812/2815 2SM -SN BKN020
     FM281600 15006KT 3SM -SN BR OVC025
     FM282000 12005KT 5SM BR OVC020
     FM282300 12005KT 3SM -FZDZPL OVC010
     FM290300 14004KT 3SM -FZDZ BR OVC006=

USA.gov is the U.S. government's official web portal to all federal, state and local government web resources and services.